Time;durP1;ratioP1;P1;durP2;ratioP2;P2;SDS_P1;SDS_P2;PMS_P1;PMS_P2;Temp;Humidity;BMP_temperature;BMP_pressure;BME280_temperature;BME280_humidity;BME280_pressure;Samples;Min_cycle;Max_cycle;Signal;HPM_P1;HPM_P2
2021/12/22 00:01:23;;;;;;;39.40;20.50;;;;;;;;;;5078490;28;20137;-60
2021/12/22 00:03:49;;;;;;;46.42;22.52;;;;;;;;;;5082624;28;20545;-60
2021/12/22 00:06:19;;;;;;;42.78;23.98;;;;;;;;;;5080326;28;20407;-60
2021/12/22 00:08:45;;;;;;;35.40;20.90;;;;;;;;;;5074257;28;20501;-60
2021/12/22 00:11:11;;;;;;;40.72;21.92;;;;;;;;;;5076512;28;20479;-60
2021/12/22 00:13:37;;;;;;;45.78;22.83;;;;;;;;;;5082909;28;20040;-60
2021/12/22 00:16:03;;;;;;;59.30;23.48;;;;;;;;;;5087843;28;20048;-60
2021/12/22 00:18:30;;;;;;;44.92;21.73;;;;;;;;;;5082852;28;20123;-60
2021/12/22 00:20:56;;;;;;;46.20;20.77;;;;;;;;;;5077502;28;20435;-61
2021/12/22 00:23:22;;;;;;;39.90;21.88;;;;;;;;;;5080149;28;20490;-61
2021/12/22 00:25:48;;;;;;;43.20;21.88;;;;;;;;;;5094122;28;20136;-61
2021/12/22 00:28:15;;;;;;;54.55;21.02;;;;;;;;;;5083743;28;20064;-60
2021/12/22 00:30:41;;;;;;;44.88;21.80;;;;;;;;;;5077926;28;20040;-61
2021/12/22 00:33:09;;;;;;;40.47;20.20;;;;;;;;;;5082096;28;20032;-60
2021/12/22 00:35:44;;;;;;;34.78;19.30;;;;;;;;;;5083072;28;20052;-61
2021/12/22 00:38:12;;;;;;;40.30;21.52;;;;;;;;;;5082441;28;20066;-61
2021/12/22 00:40:39;;;;;;;44.28;21.40;;;;;;;;;;5081573;28;20044;-60
2021/12/22 00:43:05;;;;;;;54.05;19.02;;;;;;;;;;5080440;28;20038;-61
2021/12/22 00:45:33;;;;;;;36.58;18.13;;;;;;;;;;5083978;28;20039;-61
2021/12/22 00:48:00;;;;;;;33.15;17.02;;;;;;;;;;5085536;28;20055;-61
2021/12/22 00:50:26;;;;;;;144.35;20.85;;;;;;;;;;5078524;28;20087;-60
2021/12/22 00:52:52;;;;;;;230.55;23.67;;;;;;;;;;5076964;28;20040;-60
2021/12/22 00:55:20;;;;;;;124.22;21.55;;;;;;;;;;5094186;28;20234;-61
2021/12/22 00:57:48;;;;;;;257.25;25.52;;;;;;;;;;5080710;28;20555;-60
2021/12/22 01:00:15;;;;;;;163.98;22.50;;;;;;;;;;5082982;28;20051;-61
2021/12/22 01:02:41;;;;;;;119.20;21.17;;;;;;;;;;5083242;28;20185;-61
2021/12/22 01:05:08;;;;;;;55.40;19.80;;;;;;;;;;5086065;28;20036;-61
2021/12/22 01:07:34;;;;;;;68.78;19.60;;;;;;;;;;5076297;28;20036;-61
2021/12/22 01:10:00;;;;;;;39.95;18.15;;;;;;;;;;5073370;28;20044;-61
2021/12/22 01:12:26;;;;;;;40.63;20.30;;;;;;;;;;5079531;28;20043;-61
2021/12/22 01:14:53;;;;;;;30.75;18.08;;;;;;;;;;5086220;28;20051;-61
2021/12/22 01:17:20;;;;;;;30.65;18.15;;;;;;;;;;5085876;28;20111;-61
2021/12/22 01:19:57;;;;;;;32.50;18.60;;;;;;;;;;5087894;28;20458;-61
2021/12/22 01:22:35;;;;;;;31.00;17.67;;;;;;;;;;5083908;28;20105;-60
2021/12/22 01:25:03;;;;;;;23.33;14.90;;;;;;;;;;5084277;28;20056;-60
2021/12/22 01:27:34;;;;;;;32.28;15.00;;;;;;;;;;5083531;28;20059;-61
2021/12/22 01:30:01;;;;;;;27.90;16.58;;;;;;;;;;5081637;28;20039;-61
2021/12/22 01:32:28;;;;;;;29.25;17.23;;;;;;;;;;5077229;28;20037;-61
2021/12/22 01:34:54;;;;;;;36.17;15.50;;;;;;;;;;5083065;28;20047;-61
2021/12/22 01:37:20;;;;;;;30.67;17.23;;;;;;;;;;5085196;28;20391;-60
2021/12/22 01:39:46;;;;;;;36.63;16.65;;;;;;;;;;5087400;28;20052;-61
2021/12/22 01:42:12;;;;;;;30.33;16.17;;;;;;;;;;5084970;28;20078;-61
2021/12/22 01:45:01;;;;;;;30.13;18.15;;;;;;;;;;5087977;28;20044;-61
2021/12/22 01:50:17;;;;;;;29.02;17.48;;;;;;;;;;5082837;28;20040;-61
2021/12/22 01:52:44;;;;;;;30.20;17.08;;;;;;;;;;5086325;28;20092;-61
2021/12/22 01:55:24;;;;;;;26.65;17.25;;;;;;;;;;5079665;28;21683;-61
2021/12/22 01:57:51;;;;;;;33.35;16.52;;;;;;;;;;5078352;28;20119;-61
2021/12/22 02:00:19;;;;;;;41.45;18.05;;;;;;;;;;5077024;28;20161;-61
2021/12/22 02:02:45;;;;;;;31.73;17.05;;;;;;;;;;5082975;28;20504;-61
2021/12/22 02:05:11;;;;;;;33.00;18.20;;;;;;;;;;5079239;28;20446;-61
2021/12/22 02:07:37;;;;;;;37.55;18.48;;;;;;;;;;5088317;28;20071;-61
2021/12/22 02:10:23;;;;;;;30.27;16.35;;;;;;;;;;5078725;28;20487;-61
2021/12/22 02:12:52;;;;;;;31.10;17.60;;;;;;;;;;5079261;28;20123;-61
2021/12/22 02:15:19;;;;;;;32.97;18.05;;;;;;;;;;5080815;28;20053;-61
2021/12/22 02:17:45;;;;;;;31.27;17.58;;;;;;;;;;5084945;28;20532;-61
2021/12/22 02:20:12;;;;;;;29.05;16.42;;;;;;;;;;5082421;28;20092;-61
2021/12/22 02:22:41;;;;;;;36.00;18.45;;;;;;;;;;5080850;28;20055;-61
2021/12/22 02:25:14;;;;;;;37.80;19.35;;;;;;;;;;5081407;28;20050;-61
2021/12/22 02:27:44;;;;;;;35.60;16.55;;;;;;;;;;5084765;28;20039;-61
2021/12/22 02:30:17;;;;;;;27.98;15.93;;;;;;;;;;5080491;28;20119;-61
2021/12/22 02:35:10;;;;;;;29.08;16.13;;;;;;;;;;5074209;28;20076;-61
2021/12/22 02:37:43;;;;;;;29.80;17.02;;;;;;;;;;5081005;28;20471;-61
2021/12/22 02:40:13;;;;;;;26.90;15.35;;;;;;;;;;5085086;28;20119;-61
2021/12/22 02:42:40;;;;;;;26.65;15.93;;;;;;;;;;5086047;28;20048;-61
2021/12/22 02:45:09;;;;;;;30.67;16.17;;;;;;;;;;5079729;28;20412;-61
2021/12/22 02:47:35;;;;;;;29.23;15.32;;;;;;;;;;5078305;28;20102;-61
2021/12/22 02:50:01;;;;;;;27.55;15.25;;;;;;;;;;5096292;27;20393;-61
2021/12/22 02:52:35;;;;;;;28.20;14.85;;;;;;;;;;5079525;28;20052;-61
2021/12/22 02:55:02;;;;;;;24.15;13.43;;;;;;;;;;5077496;28;20528;-61
2021/12/22 02:57:33;;;;;;;20.35;12.35;;;;;;;;;;5093722;28;20273;-61
2021/12/22 03:00:27;;;;;;;24.13;12.88;;;;;;;;;;5082121;28;20087;-61
2021/12/22 03:03:05;;;;;;;22.52;12.13;;;;;;;;;;5087318;28;20433;-61
2021/12/22 03:05:33;;;;;;;26.65;13.80;;;;;;;;;;5089470;28;20352;-61
2021/12/22 03:07:59;;;;;;;25.13;13.93;;;;;;;;;;5080403;28;20037;-62
2021/12/22 03:10:26;;;;;;;22.92;14.10;;;;;;;;;;5081083;28;20050;-61
2021/12/22 03:12:55;;;;;;;26.25;14.57;;;;;;;;;;5078461;28;20221;-61
2021/12/22 03:15:21;;;;;;;27.17;15.02;;;;;;;;;;5085113;28;20131;-61
2021/12/22 03:17:48;;;;;;;23.15;12.73;;;;;;;;;;5082092;28;20306;-61
2021/12/22 03:20:15;;;;;;;20.17;12.07;;;;;;;;;;5080797;28;20054;-61
2021/12/22 03:22:44;;;;;;;22.48;10.70;;;;;;;;;;5081183;28;20060;-61
2021/12/22 03:25:16;;;;;;;23.52;13.23;;;;;;;;;;5075331;28;20875;-61
2021/12/22 03:27:44;;;;;;;23.83;13.02;;;;;;;;;;5084083;28;20059;-61
2021/12/22 03:30:11;;;;;;;29.55;15.07;;;;;;;;;;5078977;28;20048;-61
2021/12/22 03:32:37;;;;;;;25.00;14.38;;;;;;;;;;5076850;28;20053;-61
2021/12/22 03:35:03;;;;;;;27.08;14.80;;;;;;;;;;5079672;28;20052;-61
2021/12/22 03:37:29;;;;;;;22.33;12.70;;;;;;;;;;5085528;28;20036;-61
2021/12/22 03:39:55;;;;;;;23.15;12.90;;;;;;;;;;5078694;28;20041;-61
2021/12/22 03:42:22;;;;;;;20.35;11.60;;;;;;;;;;5080650;28;20041;-61
2021/12/22 03:44:48;;;;;;;14.73;9.57;;;;;;;;;;5081522;28;20055;-61
2021/12/22 03:47:14;;;;;;;16.67;10.73;;;;;;;;;;5080873;28;20040;-60
2021/12/22 03:49:41;;;;;;;16.85;11.20;;;;;;;;;;5077022;28;20404;-61
2021/12/22 03:52:07;;;;;;;20.42;11.95;;;;;;;;;;5078363;28;20032;-61
2021/12/22 03:54:33;;;;;;;21.80;12.48;;;;;;;;;;5080642;28;20044;-61
2021/12/22 03:56:59;;;;;;;17.23;11.52;;;;;;;;;;5081156;28;20089;-61
2021/12/22 03:59:26;;;;;;;26.58;11.13;;;;;;;;;;5078617;28;20398;-61
2021/12/22 04:01:52;;;;;;;23.63;12.38;;;;;;;;;;5075390;28;20033;-61
2021/12/22 04:04:19;;;;;;;21.65;12.63;;;;;;;;;;5076782;28;20101;-61
2021/12/22 04:06:46;;;;;;;22.13;12.65;;;;;;;;;;5078323;28;20048;-61
2021/12/22 04:09:13;;;;;;;22.60;14.20;;;;;;;;;;5079536;28;20079;-61
2021/12/22 04:11:40;;;;;;;23.73;13.95;;;;;;;;;;5082589;28;20085;-61
2021/12/22 04:14:06;;;;;;;25.77;13.40;;;;;;;;;;5074039;28;20136;-61
2021/12/22 04:16:33;;;;;;;25.92;13.18;;;;;;;;;;5074993;28;20060;-61
2021/12/22 04:18:59;;;;;;;22.75;14.45;;;;;;;;;;5078624;28;20101;-61
2021/12/22 04:21:25;;;;;;;25.55;12.95;;;;;;;;;;5075047;28;20895;-61
2021/12/22 04:23:51;;;;;;;26.98;14.65;;;;;;;;;;5079206;28;20062;-61
2021/12/22 04:26:17;;;;;;;27.65;13.80;;;;;;;;;;5078867;28;20098;-61
2021/12/22 04:28:44;;;;;;;26.60;13.85;;;;;;;;;;5074568;28;20127;-61
2021/12/22 04:31:10;;;;;;;27.45;13.82;;;;;;;;;;5076063;28;20503;-61
2021/12/22 04:33:36;;;;;;;23.95;13.38;;;;;;;;;;5075332;28;20082;-61
2021/12/22 04:36:02;;;;;;;21.50;13.30;;;;;;;;;;5074833;28;20043;-61
2021/12/22 04:38:28;;;;;;;23.00;12.60;;;;;;;;;;5080738;28;20055;-61
2021/12/22 04:40:55;;;;;;;26.75;12.48;;;;;;;;;;5079056;28;20120;-61
2021/12/22 04:43:21;;;;;;;26.17;12.93;;;;;;;;;;5073732;28;20028;-61
2021/12/22 04:45:47;;;;;;;29.45;12.80;;;;;;;;;;5074962;28;20121;-61
2021/12/22 04:48:13;;;;;;;34.08;13.98;;;;;;;;;;5044377;28;1104335;-61
2021/12/22 04:50:40;;;;;;;25.98;12.85;;;;;;;;;;5080223;28;20059;-61
2021/12/22 04:53:11;;;;;;;25.60;12.25;;;;;;;;;;5078913;28;20068;-61
2021/12/22 04:55:38;;;;;;;25.90;11.57;;;;;;;;;;5075846;28;20105;-61
2021/12/22 04:58:04;;;;;;;25.23;12.68;;;;;;;;;;5076700;28;20089;-61
2021/12/22 05:00:32;;;;;;;28.33;12.80;;;;;;;;;;5084088;28;20040;-61
2021/12/22 05:02:58;;;;;;;20.40;12.80;;;;;;;;;;5082869;28;20504;-61
2021/12/22 05:05:25;;;;;;;23.00;12.43;;;;;;;;;;5085799;28;20040;-61
2021/12/22 05:07:51;;;;;;;22.70;12.60;;;;;;;;;;5076916;28;20071;-61
2021/12/22 05:10:18;;;;;;;22.50;12.30;;;;;;;;;;5077865;28;20063;-61
2021/12/22 05:12:46;;;;;;;26.50;13.07;;;;;;;;;;5077894;28;20058;-61
2021/12/22 05:15:12;;;;;;;23.83;12.55;;;;;;;;;;5078249;28;20438;-61
2021/12/22 05:18:02;;;;;;;26.35;13.77;;;;;;;;;;5078846;28;20044;-61
2021/12/22 05:20:25;;;;;;;30.73;14.35;;;;;;;;;;5095492;28;20517;-61
2021/12/22 05:22:52;;;;;;;25.00;13.07;;;;;;;;;;5085706;28;20105;-61
2021/12/22 05:25:18;;;;;;;28.45;12.30;;;;;;;;;;5080228;28;20106;-61
2021/12/22 05:27:44;;;;;;;24.52;13.27;;;;;;;;;;5079486;28;20048;-61
2021/12/22 05:30:11;;;;;;;23.90;12.75;;;;;;;;;;5075340;28;20047;-61
2021/12/22 05:32:38;;;;;;;26.95;13.05;;;;;;;;;;5079412;28;20135;-61
2021/12/22 05:35:06;;;;;;;24.77;12.65;;;;;;;;;;5075138;28;20045;-61
2021/12/22 05:37:32;;;;;;;25.58;13.57;;;;;;;;;;5083050;28;20043;-61
2021/12/22 05:39:58;;;;;;;25.75;12.77;;;;;;;;;;5077318;28;20102;-61
2021/12/22 05:42:25;;;;;;;25.52;13.10;;;;;;;;;;5080507;28;20071;-61
2021/12/22 05:44:51;;;;;;;24.40;12.63;;;;;;;;;;5082783;28;20044;-61
2021/12/22 05:47:18;;;;;;;27.25;13.48;;;;;;;;;;5077105;28;20599;-61
2021/12/22 05:49:44;;;;;;;24.08;12.50;;;;;;;;;;5076922;28;20052;-61
2021/12/22 05:52:11;;;;;;;24.63;13.85;;;;;;;;;;5075437;28;20182;-61
2021/12/22 05:54:37;;;;;;;21.75;13.25;;;;;;;;;;5080415;28;20043;-61
2021/12/22 05:57:03;;;;;;;26.75;14.27;;;;;;;;;;5081005;28;20400;-61
2021/12/22 05:59:29;;;;;;;29.20;14.13;;;;;;;;;;5082919;28;20036;-61
2021/12/22 06:01:56;;;;;;;27.35;13.18;;;;;;;;;;5079490;28;20044;-61
2021/12/22 06:04:22;;;;;;;29.75;14.00;;;;;;;;;;5077651;28;20144;-61
2021/12/22 06:06:48;;;;;;;24.70;12.60;;;;;;;;;;5084527;28;20040;-61
2021/12/22 06:09:14;;;;;;;33.15;13.82;;;;;;;;;;5082176;28;20064;-61
2021/12/22 06:11:41;;;;;;;26.23;12.82;;;;;;;;;;5081266;28;20775;-61
2021/12/22 06:14:07;;;;;;;26.77;12.98;;;;;;;;;;5082939;28;20048;-60
2021/12/22 06:16:33;;;;;;;26.38;13.73;;;;;;;;;;5083637;28;20050;-61
2021/12/22 06:19:03;;;;;;;25.65;12.80;;;;;;;;;;5076522;28;20043;-60
2021/12/22 06:21:31;;;;;;;22.92;12.80;;;;;;;;;;5081184;28;20404;-61
2021/12/22 06:23:57;;;;;;;29.35;13.48;;;;;;;;;;5082101;28;20115;-61
2021/12/22 06:26:23;;;;;;;22.65;12.85;;;;;;;;;;5086659;28;20119;-60
2021/12/22 06:28:50;;;;;;;28.65;13.95;;;;;;;;;;5082720;28;20043;-60
2021/12/22 06:31:17;;;;;;;27.77;12.95;;;;;;;;;;5077958;28;20055;-60
2021/12/22 06:33:43;;;;;;;26.02;13.50;;;;;;;;;;5076966;28;20041;-60
2021/12/22 06:36:09;;;;;;;29.02;12.98;;;;;;;;;;5081212;28;20126;-60
2021/12/22 06:39:04;;;;;;;25.27;13.43;;;;;;;;;;5087763;28;20047;-60
2021/12/22 06:41:32;;;;;;;27.92;14.77;;;;;;;;;;5093540;28;20048;-60
2021/12/22 06:43:58;;;;;;;27.30;13.05;;;;;;;;;;5084123;28;20044;-60
2021/12/22 06:46:25;;;;;;;27.52;14.38;;;;;;;;;;5078319;28;20110;-61
2021/12/22 06:48:51;;;;;;;26.13;13.43;;;;;;;;;;5077869;28;20080;-60
2021/12/22 06:51:17;;;;;;;27.80;14.38;;;;;;;;;;5073946;28;20376;-61
2021/12/22 06:53:43;;;;;;;24.48;12.35;;;;;;;;;;5075872;28;20396;-59
2021/12/22 06:56:10;;;;;;;30.30;12.95;;;;;;;;;;5078623;28;20059;-60
2021/12/22 06:58:36;;;;;;;30.00;14.07;;;;;;;;;;5082255;28;20043;-60
2021/12/22 07:01:02;;;;;;;25.30;13.18;;;;;;;;;;5079843;28;20202;-60
2021/12/22 07:03:28;;;;;;;27.88;12.40;;;;;;;;;;5077133;28;20039;-60
2021/12/22 07:05:55;;;;;;;23.90;12.82;;;;;;;;;;5078175;28;20082;-60
2021/12/22 07:08:21;;;;;;;23.98;12.73;;;;;;;;;;5084092;28;20075;-60
2021/12/22 07:10:47;;;;;;;28.58;13.15;;;;;;;;;;5075253;28;20044;-59
2021/12/22 07:13:14;;;;;;;25.38;13.48;;;;;;;;;;5077272;28;20043;-60
2021/12/22 07:15:40;;;;;;;23.52;12.68;;;;;;;;;;5080747;28;20049;-60
2021/12/22 07:18:08;;;;;;;29.75;13.65;;;;;;;;;;5075634;28;20059;-60
2021/12/22 07:20:35;;;;;;;32.83;14.25;;;;;;;;;;5078735;28;20361;-60
2021/12/22 07:23:01;;;;;;;28.95;13.55;;;;;;;;;;5081293;28;20048;-60
2021/12/22 07:25:27;;;;;;;27.88;12.35;;;;;;;;;;5083171;28;20093;-60
2021/12/22 07:27:54;;;;;;;30.50;13.85;;;;;;;;;;5080128;28;20051;-60
2021/12/22 07:30:20;;;;;;;25.08;13.75;;;;;;;;;;5078337;28;20044;-60
2021/12/22 07:32:46;;;;;;;27.75;12.88;;;;;;;;;;5081393;28;20080;-60
2021/12/22 07:35:24;;;;;;;26.95;13.13;;;;;;;;;;5087572;28;20045;-61
2021/12/22 07:37:58;;;;;;;27.63;12.98;;;;;;;;;;5089534;28;20036;-60
2021/12/22 07:40:24;;;;;;;26.58;13.20;;;;;;;;;;5088056;28;20044;-59
2021/12/22 07:42:50;;;;;;;33.05;14.63;;;;;;;;;;5092681;28;20067;-59
2021/12/22 07:45:16;;;;;;;29.80;13.52;;;;;;;;;;5077441;28;20073;-59
2021/12/22 07:47:42;;;;;;;29.52;13.43;;;;;;;;;;5076522;28;20048;-60
2021/12/22 07:50:09;;;;;;;34.00;13.85;;;;;;;;;;5076143;28;20071;-59
2021/12/22 07:52:35;;;;;;;23.52;12.38;;;;;;;;;;5077185;28;20029;-59
2021/12/22 07:55:02;;;;;;;24.98;12.93;;;;;;;;;;5076648;28;20040;-59
2021/12/22 07:57:28;;;;;;;27.38;14.85;;;;;;;;;;5083426;28;20043;-59
2021/12/22 07:59:55;;;;;;;23.95;14.43;;;;;;;;;;5073254;28;20040;-59
2021/12/22 08:02:21;;;;;;;28.77;13.52;;;;;;;;;;5075207;28;20044;-59
2021/12/22 08:04:47;;;;;;;27.58;13.38;;;;;;;;;;5077064;28;20055;-59
2021/12/22 08:07:13;;;;;;;32.75;15.35;;;;;;;;;;5079488;28;20038;-59
2021/12/22 08:09:39;;;;;;;28.10;14.50;;;;;;;;;;5077382;28;20047;-60
2021/12/22 08:12:06;;;;;;;26.77;13.93;;;;;;;;;;5083523;28;20081;-60
2021/12/22 08:14:33;;;;;;;34.05;13.82;;;;;;;;;;5079357;28;20044;-59
2021/12/22 08:16:59;;;;;;;31.73;16.75;;;;;;;;;;5072804;28;20075;-60
2021/12/22 08:19:25;;;;;;;20.65;12.40;;;;;;;;;;5084157;28;20159;-59
2021/12/22 08:21:52;;;;;;;21.92;12.82;;;;;;;;;;5084698;28;20388;-61
2021/12/22 08:24:18;;;;;;;26.05;14.25;;;;;;;;;;5075746;28;20124;-60
2021/12/22 08:26:44;;;;;;;27.45;12.38;;;;;;;;;;5079754;28;20045;-60
2021/12/22 08:29:10;;;;;;;30.40;12.77;;;;;;;;;;5086654;28;20086;-60
2021/12/22 08:31:36;;;;;;;23.50;11.95;;;;;;;;;;5086412;28;20074;-59
2021/12/22 08:34:04;;;;;;;26.48;13.02;;;;;;;;;;5077822;28;20360;-59
2021/12/22 08:39:16;;;;;;;30.35;14.05;;;;;;;;;;5080719;28;20049;-60
2021/12/22 08:41:47;;;;;;;29.60;13.48;;;;;;;;;;5082739;28;20067;-60
2021/12/22 08:44:14;;;;;;;33.67;13.82;;;;;;;;;;5083532;28;20058;-60
2021/12/22 08:46:42;;;;;;;28.45;14.43;;;;;;;;;;5092142;28;20434;-60
2021/12/22 08:49:08;;;;;;;26.08;13.48;;;;;;;;;;5091369;28;20052;-60
2021/12/22 08:51:34;;;;;;;30.98;14.38;;;;;;;;;;5090134;28;20440;-60
2021/12/22 08:54:01;;;;;;;28.63;14.68;;;;;;;;;;5092881;28;20136;-59
2021/12/22 08:56:28;;;;;;;23.83;13.10;;;;;;;;;;5092950;28;20040;-59
2021/12/22 08:58:54;;;;;;;29.67;13.85;;;;;;;;;;5093486;28;20064;-60
2021/12/22 09:01:22;;;;;;;29.05;13.45;;;;;;;;;;5091635;28;20047;-60
2021/12/22 09:03:48;;;;;;;29.13;12.80;;;;;;;;;;5091158;28;20399;-60
2021/12/22 09:06:15;;;;;;;32.15;14.18;;;;;;;;;;5092996;28;20040;-60
2021/12/22 09:08:42;;;;;;;29.13;14.25;;;;;;;;;;5090828;28;20071;-60
2021/12/22 09:11:08;;;;;;;30.38;13.98;;;;;;;;;;5090176;28;20052;-60
2021/12/22 09:13:37;;;;;;;32.63;14.30;;;;;;;;;;5092693;28;20039;-60
2021/12/22 09:16:03;;;;;;;32.40;14.52;;;;;;;;;;5084677;28;20388;-60
2021/12/22 09:18:29;;;;;;;32.88;14.93;;;;;;;;;;5093146;28;20058;-59
2021/12/22 09:20:56;;;;;;;29.70;14.30;;;;;;;;;;5088379;28;20044;-59
2021/12/22 09:23:22;;;;;;;34.00;15.13;;;;;;;;;;5090792;28;21408;-60
2021/12/22 09:25:48;;;;;;;31.08;14.98;;;;;;;;;;5090922;28;20076;-60
2021/12/22 09:28:14;;;;;;;27.58;14.20;;;;;;;;;;5090765;28;20039;-60
2021/12/22 09:30:42;;;;;;;28.17;15.23;;;;;;;;;;5086541;28;20147;-60
2021/12/22 09:33:11;;;;;;;33.47;16.15;;;;;;;;;;5091975;28;20040;-60
2021/12/22 09:35:38;;;;;;;28.27;14.70;;;;;;;;;;5092963;28;20108;-60
2021/12/22 09:38:04;;;;;;;26.77;14.55;;;;;;;;;;5095607;28;20058;-60
2021/12/22 09:40:30;;;;;;;33.47;15.80;;;;;;;;;;5096020;28;20044;-60
2021/12/22 09:42:57;;;;;;;32.67;16.10;;;;;;;;;;5096272;28;20044;-60
2021/12/22 09:45:25;;;;;;;33.33;16.45;;;;;;;;;;5096514;28;20147;-60
2021/12/22 09:48:19;;;;;;;37.90;18.00;;;;;;;;;;5095160;28;20059;-60
2021/12/22 09:50:51;;;;;;;35.67;15.25;;;;;;;;;;5102589;28;20051;-60
2021/12/22 09:53:19;;;;;;;43.92;16.92;;;;;;;;;;5094386;28;20079;-60
2021/12/22 09:55:45;;;;;;;29.98;14.43;;;;;;;;;;5097702;28;20438;-60
2021/12/22 09:58:11;;;;;;;35.10;16.92;;;;;;;;;;5093555;28;20036;-60
2021/12/22 10:00:38;;;;;;;36.40;16.60;;;;;;;;;;5093631;28;20048;-60
2021/12/22 10:03:05;;;;;;;31.35;15.55;;;;;;;;;;5091481;28;20880;-60
2021/12/22 10:05:32;;;;;;;34.55;15.80;;;;;;;;;;5092811;28;20459;-60
2021/12/22 10:08:11;;;;;;;36.85;16.63;;;;;;;;;;5093128;28;20547;-60
2021/12/22 10:10:39;;;;;;;30.73;14.77;;;;;;;;;;5092371;28;20196;-59
2021/12/22 10:13:06;;;;;;;42.60;16.90;;;;;;;;;;5076544;28;20391;-60
2021/12/22 10:15:34;;;;;;;28.35;14.68;;;;;;;;;;5080516;28;20047;-60
2021/12/22 10:18:10;;;;;;;28.25;15.40;;;;;;;;;;5089112;28;20067;-61
2021/12/22 10:20:36;;;;;;;31.63;16.15;;;;;;;;;;5083059;28;20206;-61
2021/12/22 10:23:02;;;;;;;32.97;16.08;;;;;;;;;;5080658;28;20033;-60
2021/12/22 10:25:31;;;;;;;35.63;15.68;;;;;;;;;;5078819;28;20368;-60
2021/12/22 10:28:00;;;;;;;38.88;17.33;;;;;;;;;;5087820;28;20107;-61
2021/12/22 10:30:28;;;;;;;30.83;14.75;;;;;;;;;;5086173;28;20051;-60
2021/12/22 10:33:08;;;;;;;34.05;16.13;;;;;;;;;;5077380;28;20076;-60
2021/12/22 10:35:35;;;;;;;31.23;15.82;;;;;;;;;;5084236;28;20068;-60
2021/12/22 10:38:02;;;;;;;32.22;16.90;;;;;;;;;;5089321;28;20119;-61
2021/12/22 10:40:31;;;;;;;27.85;15.05;;;;;;;;;;5080998;28;20144;-61
2021/12/22 10:42:58;;;;;;;31.58;15.65;;;;;;;;;;5076694;28;20045;-60
2021/12/22 10:45:25;;;;;;;30.45;15.63;;;;;;;;;;5082142;28;20131;-60
2021/12/22 10:50:39;;;;;;;33.50;16.15;;;;;;;;;;5083345;28;20051;-60
2021/12/22 10:53:06;;;;;;;31.85;16.90;;;;;;;;;;5088332;28;20051;-60
2021/12/22 10:55:37;;;;;;;32.92;16.85;;;;;;;;;;5083881;28;20551;-60
2021/12/22 10:58:14;;;;;;;33.15;16.95;;;;;;;;;;5077487;28;20119;-60
2021/12/22 11:00:40;;;;;;;35.38;15.57;;;;;;;;;;5089119;28;20044;-60
2021/12/22 11:03:08;;;;;;;32.63;15.25;;;;;;;;;;5084163;28;20096;-60
2021/12/22 11:05:43;;;;;;;32.28;15.85;;;;;;;;;;5076190;28;20044;-60
2021/12/22 11:08:21;;;;;;;30.98;15.73;;;;;;;;;;5078464;28;20385;-60
2021/12/22 11:10:49;;;;;;;31.42;15.73;;;;;;;;;;5076562;28;20123;-60
2021/12/22 11:13:19;;;;;;;30.05;14.40;;;;;;;;;;5076148;28;20094;-61
2021/12/22 11:15:45;;;;;;;29.33;15.27;;;;;;;;;;5086720;28;20052;-60
2021/12/22 11:18:33;;;;;;;35.20;16.15;;;;;;;;;;5079762;28;20036;-61
2021/12/22 11:21:09;;;;;;;30.58;16.35;;;;;;;;;;5085444;28;20040;-60
2021/12/22 11:23:35;;;;;;;31.95;15.45;;;;;;;;;;5088069;28;20055;-60
2021/12/22 11:26:02;;;;;;;30.75;16.05;;;;;;;;;;5089829;28;20042;-60
2021/12/22 11:28:29;;;;;;;36.67;18.05;;;;;;;;;;5089093;28;20425;-60
2021/12/22 11:30:56;;;;;;;35.05;15.85;;;;;;;;;;5087456;28;20052;-61
2021/12/22 11:33:22;;;;;;;36.30;16.48;;;;;;;;;;5089365;28;20429;-60
2021/12/22 11:35:49;;;;;;;29.40;15.50;;;;;;;;;;5078947;28;20090;-61
2021/12/22 11:38:16;;;;;;;29.77;14.75;;;;;;;;;;5081555;28;20507;-61
2021/12/22 11:40:51;;;;;;;29.60;15.00;;;;;;;;;;5084377;28;20488;-61
2021/12/22 11:43:17;;;;;;;28.55;14.32;;;;;;;;;;5080903;28;20444;-61
2021/12/22 11:45:45;;;;;;;30.83;15.27;;;;;;;;;;5078196;28;20063;-61
2021/12/22 11:48:11;;;;;;;29.10;15.45;;;;;;;;;;5081660;28;20056;-61
2021/12/22 11:50:38;;;;;;;28.02;13.13;;;;;;;;;;5093543;27;20056;-61
2021/12/22 11:53:08;;;;;;;31.48;15.43;;;;;;;;;;5070711;28;20340;-60
2021/12/22 11:55:37;;;;;;;29.35;15.40;;;;;;;;;;5078481;28;20056;-60
2021/12/22 11:58:13;;;;;;;31.38;15.77;;;;;;;;;;5079746;28;20040;-60
2021/12/22 12:00:41;;;;;;;30.42;15.65;;;;;;;;;;5080943;28;20097;-62
2021/12/22 12:03:29;;;;;;;32.47;15.77;;;;;;;;;;5078062;28;20235;-60
2021/12/22 12:06:04;;;;;;;28.63;15.10;;;;;;;;;;5081627;28;20718;-61
2021/12/22 12:08:34;;;;;;;32.33;16.55;;;;;;;;;;5078174;28;20435;-60
2021/12/22 12:11:01;;;;;;;28.13;14.05;;;;;;;;;;5080574;28;20123;-61
2021/12/22 12:13:36;;;;;;;30.45;15.68;;;;;;;;;;5083070;28;20036;-61
2021/12/22 12:21:44;;;;;;;;;;;;;;;;;;5080080;28;20109;-61
2021/12/22 12:24:29;;;;;;;31.98;16.25;;;;;;;;;;5078101;28;19920;-61
2021/12/22 12:26:55;;;;;;;28.77;15.13;;;;;;;;;;5080661;28;20048;-61
2021/12/22 12:29:40;;;;;;;38.13;16.63;;;;;;;;;;5075673;28;20083;-60
2021/12/22 12:32:06;;;;;;;31.02;14.77;;;;;;;;;;5079226;28;20044;-60
2021/12/22 12:34:32;;;;;;;29.63;15.88;;;;;;;;;;5079013;28;20082;-60
2021/12/22 12:37:00;;;;;;;29.67;16.00;;;;;;;;;;5080670;28;20407;-60
2021/12/22 12:39:44;;;;;;;30.10;16.40;;;;;;;;;;5075315;28;20115;-61
2021/12/22 12:42:11;;;;;;;28.35;15.93;;;;;;;;;;5079217;28;20058;-61
2021/12/22 12:44:37;;;;;;;25.23;15.30;;;;;;;;;;5079907;28;20032;-61
2021/12/22 12:47:17;;;;;;;28.77;14.38;;;;;;;;;;5073073;28;20059;-61
2021/12/22 12:49:44;;;;;;;28.17;15.40;;;;;;;;;;5073254;28;20400;-61
2021/12/22 12:52:19;;;;;;;23.95;14.48;;;;;;;;;;5073805;28;20084;-60
2021/12/22 12:54:46;;;;;;;32.72;16.13;;;;;;;;;;5075588;28;20119;-61
2021/12/22 12:57:13;;;;;;;28.30;15.70;;;;;;;;;;5072790;28;20119;-60
2021/12/22 12:59:40;;;;;;;29.08;13.90;;;;;;;;;;5072811;28;20044;-60
2021/12/22 13:02:08;;;;;;;30.85;14.95;;;;;;;;;;5077801;28;20109;-59
2021/12/22 13:04:35;;;;;;;28.30;15.52;;;;;;;;;;5081722;28;20046;-60
2021/12/22 13:07:03;;;;;;;32.05;15.90;;;;;;;;;;5073163;28;20045;-60
2021/12/22 13:09:30;;;;;;;25.20;13.75;;;;;;;;;;5081214;28;20036;-60
2021/12/22 13:12:02;;;;;;;26.35;15.40;;;;;;;;;;5077356;28;20037;-60
2021/12/22 13:17:15;;;;;;;25.92;13.60;;;;;;;;;;5084704;28;20048;-60
2021/12/22 13:19:43;;;;;;;28.70;14.68;;;;;;;;;;5084958;28;20045;-60
2021/12/22 13:22:16;;;;;;;24.13;13.90;;;;;;;;;;5085455;28;20055;-60
2021/12/22 13:24:43;;;;;;;28.23;14.80;;;;;;;;;;5079658;28;20060;-60
2021/12/22 13:27:09;;;;;;;32.35;13.95;;;;;;;;;;5087316;28;20405;-60
2021/12/22 13:29:36;;;;;;;24.15;13.25;;;;;;;;;;5085094;28;20040;-60
2021/12/22 13:32:09;;;;;;;26.20;14.82;;;;;;;;;;5079407;28;20147;-60
2021/12/22 13:34:43;;;;;;;29.85;15.75;;;;;;;;;;5083666;28;20051;-62
2021/12/22 13:37:10;;;;;;;26.77;13.60;;;;;;;;;;5086644;28;20092;-61
2021/12/22 13:39:41;;;;;;;29.17;14.30;;;;;;;;;;5094078;28;20573;-61
2021/12/22 13:42:07;;;;;;;27.45;14.52;;;;;;;;;;5088023;28;20052;-60
2021/12/22 13:44:37;;;;;;;31.33;15.80;;;;;;;;;;5084416;28;20071;-60
2021/12/22 13:47:05;;;;;;;30.35;14.98;;;;;;;;;;5082625;28;20487;-60
2021/12/22 13:49:31;;;;;;;31.83;15.07;;;;;;;;;;5082506;28;20037;-60
2021/12/22 13:51:58;;;;;;;26.77;14.75;;;;;;;;;;5080767;28;20048;-60
2021/12/22 13:54:27;;;;;;;24.65;13.48;;;;;;;;;;5083482;28;20036;-61
2021/12/22 13:56:59;;;;;;;27.75;14.48;;;;;;;;;;5081951;28;20450;-60
2021/12/22 13:59:28;;;;;;;27.88;15.00;;;;;;;;;;5082772;28;20040;-60
2021/12/22 14:01:56;;;;;;;31.58;16.10;;;;;;;;;;5082022;28;20062;-60
2021/12/22 14:04:32;;;;;;;29.17;14.82;;;;;;;;;;5090813;28;20101;-60
2021/12/22 14:07:06;;;;;;;28.83;14.73;;;;;;;;;;5076829;28;20044;-60
2021/12/22 14:09:34;;;;;;;30.67;15.52;;;;;;;;;;5085125;28;20860;-59
2021/12/22 14:12:01;;;;;;;29.05;14.85;;;;;;;;;;5077390;28;20130;-60
2021/12/22 14:14:35;;;;;;;27.98;14.95;;;;;;;;;;5083600;28;20454;-60
2021/12/22 14:17:09;;;;;;;35.83;15.23;;;;;;;;;;5085745;28;20062;-60
2021/12/22 14:19:40;;;;;;;30.63;15.95;;;;;;;;;;5093996;28;20098;-60
2021/12/22 14:22:08;;;;;;;27.50;15.27;;;;;;;;;;5085096;28;20078;-62
2021/12/22 14:24:36;;;;;;;31.60;15.75;;;;;;;;;;5082807;28;20488;-60
2021/12/22 14:27:03;;;;;;;28.48;14.32;;;;;;;;;;5082573;28;20122;-59
2021/12/22 14:29:31;;;;;;;29.20;14.93;;;;;;;;;;5098115;28;20048;-60
2021/12/22 14:31:59;;;;;;;27.98;14.02;;;;;;;;;;5096531;28;21842;-60
2021/12/22 14:34:25;;;;;;;27.98;14.10;;;;;;;;;;5093377;28;20059;-60
2021/12/22 14:36:51;;;;;;;27.30;14.88;;;;;;;;;;5082144;28;20035;-61
2021/12/22 14:39:18;;;;;;;29.38;14.48;;;;;;;;;;5077688;28;20054;-60
2021/12/22 14:41:45;;;;;;;29.15;14.30;;;;;;;;;;5082088;28;20132;-60